Terminal Aerodrome Forecast
Issued by NWS

Home | Current Version | Previous Version | Text Only | Print | Product List | Glossary On
Versions: 1 2 3 4 5 6 7 8 9 10 11 12
925
FTUS43 KOAX 222320
TAFSNY
TAF
KSNY 222320Z 2300/2324 32015KT P6SM SCT090
     FM230200 22007KT P6SM SCT090
     FM230800 20007KT P6SM BKN060
     FM231500 19012KT P6SM OVC035
     FM232000 16010KT P6SM BKN060=

USA.gov is the U.S. government's official web portal to all federal, state and local government web resources and services.